createdAt,value
2018-06-19T00:00:54.267Z,17.28
2018-06-19T00:03:22.919Z,17.13
2018-06-19T00:05:51.354Z,17.08
2018-06-19T00:08:19.736Z,17.00
2018-06-19T00:10:48.243Z,16.96
2018-06-19T00:13:16.645Z,17.03
2018-06-19T00:15:45.171Z,16.99
2018-06-19T00:18:17.995Z,16.99
2018-06-19T00:20:46.779Z,17.02
2018-06-19T00:23:15.294Z,16.92
2018-06-19T00:25:43.799Z,16.85
2018-06-19T00:28:12.322Z,16.82
2018-06-19T00:30:40.791Z,16.62
2018-06-19T00:33:09.447Z,16.76
2018-06-19T00:35:37.891Z,16.66
2018-06-19T00:38:06.375Z,16.66
2018-06-19T00:40:34.879Z,16.70
2018-06-19T00:43:03.447Z,16.90
2018-06-19T00:45:32.047Z,16.86
2018-06-19T00:48:00.539Z,16.75
2018-06-19T00:50:28.931Z,16.68
2018-06-19T00:52:57.331Z,16.92
2018-06-19T00:55:25.731Z,16.74
2018-06-19T00:57:54.230Z,16.64
2018-06-19T01:00:22.904Z,16.37
2018-06-19T01:02:51.615Z,16.43
2018-06-19T01:05:20.123Z,16.48
2018-06-19T01:07:48.761Z,16.19
2018-06-19T01:10:17.207Z,16.28
2018-06-19T01:12:45.683Z,16.28
2018-06-19T01:15:14.575Z,16.20
2018-06-19T01:17:42.971Z,16.25
2018-06-19T01:20:12.515Z,16.23
2018-06-19T01:22:41.051Z,16.30
2018-06-19T01:25:09.491Z,16.25
2018-06-19T01:27:38.175Z,16.23
2018-06-19T01:30:06.693Z,16.36
2018-06-19T01:32:35.107Z,16.50
2018-06-19T01:35:03.559Z,16.21
2018-06-19T01:37:32.063Z,16.20
2018-06-19T01:40:00.740Z,16.15
2018-06-19T01:42:29.211Z,16.20
2018-06-19T01:44:57.636Z,16.16
2018-06-19T01:47:26.060Z,16.02
2018-06-19T01:49:54.535Z,15.63
2018-06-19T01:52:23.416Z,15.63
2018-06-19T01:54:51.815Z,15.63
2018-06-19T01:57:20.248Z,15.60
2018-06-19T01:59:48.746Z,15.63
2018-06-19T02:02:17.292Z,15.54
2018-06-19T02:04:46.107Z,15.56
2018-06-19T02:07:14.699Z,15.65
2018-06-19T02:09:43.083Z,15.70
2018-06-19T02:12:11.547Z,15.66
2018-06-19T02:14:39.931Z,15.74
2018-06-19T02:17:08.562Z,15.60
2018-06-19T02:19:37.067Z,15.43
2018-06-19T02:22:05.566Z,15.37
2018-06-19T02:24:34.089Z,15.43
2018-06-19T02:27:02.580Z,15.52
2018-06-19T02:29:31.071Z,15.29
2018-06-19T02:31:59.556Z,15.27
2018-06-19T02:34:28.028Z,15.21
2018-06-19T02:36:56.443Z,15.35
2018-06-19T02:39:24.908Z,15.23
2018-06-19T02:41:53.491Z,15.33
2018-06-19T02:44:21.910Z,15.24
2018-06-19T02:46:50.403Z,15.09
2018-06-19T02:49:18.823Z,15.08
2018-06-19T02:51:47.319Z,15.07
2018-06-19T02:54:15.969Z,14.97
2018-06-19T02:56:44.499Z,15.04
2018-06-19T02:59:12.912Z,15.10
2018-06-19T03:01:41.400Z,15.08
2018-06-19T03:04:09.832Z,15.11
2018-06-19T03:06:38.428Z,14.93
2018-06-19T03:09:09.347Z,14.93
2018-06-19T03:11:37.800Z,14.92
2018-06-19T03:14:06.507Z,14.93
2018-06-19T03:16:34.939Z,14.96
2018-06-19T03:19:03.782Z,14.99
2018-06-19T03:21:32.408Z,15.03
2018-06-19T03:24:01.174Z,15.20
2018-06-19T03:26:29.579Z,14.99
2018-06-19T03:28:57.976Z,15.05
2018-06-19T03:31:26.534Z,15.07
2018-06-19T03:33:55.152Z,14.89
2018-06-19T03:36:23.839Z,15.08
2018-06-19T03:38:52.255Z,15.09
2018-06-19T03:41:20.751Z,15.41
2018-06-19T03:43:49.171Z,15.21
2018-06-19T03:46:17.652Z,15.31
2018-06-19T03:48:46.143Z,15.34
2018-06-19T03:51:14.608Z,15.36
2018-06-19T03:53:43.016Z,15.30
2018-06-19T03:56:11.523Z,15.27
2018-06-19T03:58:40.015Z,15.52
2018-06-19T04:01:08.676Z,15.46
2018-06-19T04:03:37.185Z,15.43
2018-06-19T04:06:05.683Z,15.44
2018-06-19T04:08:34.215Z,15.43
2018-06-19T04:11:02.732Z,15.47
2018-06-19T04:13:31.341Z,15.47
2018-06-19T04:15:59.811Z,15.56
2018-06-19T04:18:28.263Z,15.70
2018-06-19T04:20:56.758Z,15.70
2018-06-19T04:23:25.187Z,15.70
2018-06-19T04:25:53.627Z,15.49
2018-06-19T04:28:22.156Z,16.07
2018-06-19T04:30:50.619Z,16.84
2018-06-19T04:33:19.136Z,17.60
2018-06-19T04:35:47.539Z,18.44
2018-06-19T04:38:16.383Z,19.10
2018-06-19T04:40:44.771Z,19.10
2018-06-19T04:43:13.174Z,19.67
2018-06-19T04:45:41.710Z,20.08
2018-06-19T04:48:10.174Z,20.28
2018-06-19T04:50:38.851Z,19.28
2018-06-19T04:53:07.251Z,20.19
2018-06-19T04:55:35.657Z,20.54
2018-06-19T04:58:04.181Z,20.97
2018-06-19T05:00:32.651Z,21.14
2018-06-19T05:03:01.239Z,21.44
2018-06-19T05:05:29.737Z,21.49
2018-06-19T05:07:58.129Z,21.65
2018-06-19T05:10:26.602Z,22.13
2018-06-19T05:12:55.075Z,22.23
2018-06-19T05:15:23.718Z,21.99
2018-06-19T05:17:52.220Z,22.04
2018-06-19T05:20:20.736Z,22.76
2018-06-19T05:22:49.159Z,22.73
2018-06-19T05:25:17.584Z,22.50
2018-06-19T05:27:46.255Z,23.11
2018-06-19T05:30:14.683Z,23.13
2018-06-19T05:32:43.059Z,23.38
2018-06-19T05:35:11.511Z,23.58
2018-06-19T05:37:39.970Z,24.11
2018-06-19T05:40:08.635Z,24.11
2018-06-19T05:42:37.035Z,23.68
2018-06-19T05:45:05.431Z,24.02
2018-06-19T05:47:33.951Z,24.08
2018-06-19T05:50:02.367Z,23.92
2018-06-19T05:52:30.845Z,24.17
2018-06-19T05:54:59.243Z,23.69
2018-06-19T05:57:27.687Z,24.02
2018-06-19T05:59:56.126Z,24.49
2018-06-19T06:02:24.605Z,24.43
2018-06-19T06:04:53.251Z,24.22
2018-06-19T06:07:21.671Z,24.26
2018-06-19T06:09:50.415Z,24.78
2018-06-19T06:12:18.893Z,24.60
2018-06-19T06:14:47.400Z,24.16
2018-06-19T06:17:16.089Z,24.26
2018-06-19T06:19:44.535Z,24.61
2018-06-19T06:22:12.944Z,24.24
2018-06-19T06:24:41.364Z,23.67
2018-06-19T06:27:09.923Z,24.01
2018-06-19T06:29:38.813Z,24.17
2018-06-19T06:32:07.197Z,23.76
2018-06-19T06:34:35.711Z,23.98
2018-06-19T06:37:04.207Z,24.43
2018-06-19T06:39:32.676Z,24.40
2018-06-19T06:42:01.388Z,23.69
2018-06-19T06:44:29.802Z,23.58
2018-06-19T06:46:58.290Z,24.05
2018-06-19T06:49:26.811Z,23.66
2018-06-19T06:51:55.275Z,24.08
2018-06-19T06:54:23.974Z,24.59
2018-06-19T06:56:56.519Z,23.28
2018-06-19T06:59:25.135Z,23.35
2018-06-19T07:01:53.543Z,22.98
2018-06-19T07:04:21.936Z,23.00
2018-06-19T07:06:50.827Z,22.86
2018-06-19T07:09:19.247Z,22.87
2018-06-19T07:11:47.755Z,22.74
2018-06-19T07:14:16.226Z,22.40
2018-06-19T07:16:44.752Z,22.58
2018-06-19T07:19:13.300Z,22.73
2018-06-19T07:21:41.828Z,22.94
2018-06-19T07:24:10.339Z,23.12
2018-06-19T07:26:38.860Z,23.20
2018-06-19T07:29:07.247Z,23.75
2018-06-19T07:31:35.665Z,23.69
2018-06-19T07:34:04.218Z,23.75
2018-06-19T07:36:32.731Z,24.37
2018-06-19T07:39:01.195Z,24.33
2018-06-19T07:41:29.612Z,23.98
2018-06-19T07:43:58.099Z,23.50
2018-06-19T07:46:26.557Z,23.42
2018-06-19T07:48:55.235Z,23.55
2018-06-19T07:51:23.732Z,23.10
2018-06-19T07:53:52.215Z,23.03
2018-06-19T07:56:20.623Z,22.72
2018-06-19T07:58:49.155Z,22.57
2018-06-19T08:01:17.603Z,22.60
2018-06-19T08:03:45.988Z,22.82
2018-06-19T08:06:14.382Z,22.60
2018-06-19T08:08:42.823Z,23.14
2018-06-19T08:11:11.286Z,23.17
2018-06-19T08:13:40.167Z,22.92
2018-06-19T08:16:08.687Z,22.89
2018-06-19T08:18:37.509Z,23.01
2018-06-19T08:21:06.151Z,23.23
2018-06-19T08:23:34.576Z,23.11
2018-06-19T08:26:03.279Z,23.25
2018-06-19T08:28:31.690Z,23.45
2018-06-19T08:31:00.154Z,23.90
2018-06-19T08:33:28.615Z,23.91
2018-06-19T08:35:57.035Z,23.84
2018-06-19T08:38:25.583Z,23.73
2018-06-19T08:40:54.075Z,23.67
2018-06-19T08:43:22.560Z,23.57
2018-06-19T08:45:51.369Z,23.42
2018-06-19T08:48:19.873Z,23.14
2018-06-19T08:50:48.272Z,23.04
2018-06-19T08:53:16.980Z,23.23
2018-06-19T08:55:45.420Z,23.28
2018-06-19T08:58:13.818Z,23.41
2018-06-19T09:00:42.327Z,23.88
2018-06-19T09:03:11.198Z,23.99
2018-06-19T09:05:39.725Z,24.07
2018-06-19T09:08:08.275Z,24.24
2018-06-19T09:10:36.791Z,24.18
2018-06-19T09:13:05.271Z,24.09
2018-06-19T09:15:33.795Z,24.10
2018-06-19T09:18:02.263Z,23.92
2018-06-19T09:20:31.011Z,24.08
2018-06-19T09:22:59.487Z,24.10
2018-06-19T09:25:27.924Z,24.14
2018-06-19T09:27:56.567Z,24.30
2018-06-19T09:30:25.036Z,24.18
2018-06-19T09:32:53.547Z,24.30
2018-06-19T09:35:22.011Z,24.12
2018-06-19T09:37:50.536Z,23.91
2018-06-19T09:40:18.960Z,24.62
2018-06-19T09:42:47.503Z,24.75
2018-06-19T09:45:15.979Z,24.39
2018-06-19T09:47:44.499Z,24.87
2018-06-19T09:50:13.007Z,25.02
2018-06-19T09:52:41.511Z,24.96
2018-06-19T09:55:10.117Z,24.83
2018-06-19T09:57:38.611Z,25.04
2018-06-19T10:00:07.296Z,24.75
2018-06-19T10:02:35.756Z,25.46
2018-06-19T10:05:04.267Z,25.86
2018-06-19T10:07:32.635Z,25.01
2018-06-19T10:10:01.071Z,24.92
2018-06-19T10:12:29.495Z,24.94
2018-06-19T10:14:58.069Z,24.83
2018-06-19T10:17:26.579Z,24.76
2018-06-19T10:19:55.288Z,24.63
2018-06-19T10:22:23.703Z,25.19
2018-06-19T10:24:52.114Z,24.78
2018-06-19T10:27:20.543Z,25.19
2018-06-19T10:29:48.978Z,25.12
2018-06-19T10:32:17.483Z,24.90
2018-06-19T10:34:45.963Z,25.14
2018-06-19T10:37:14.395Z,24.91
2018-06-19T10:39:42.883Z,24.47
2018-06-19T10:42:11.379Z,24.45
2018-06-19T10:44:39.774Z,25.59
2018-06-19T10:47:08.297Z,25.20
2018-06-19T10:49:36.714Z,24.72
2018-06-19T10:52:05.111Z,25.09
2018-06-19T10:54:33.776Z,24.92
2018-06-19T10:57:02.175Z,24.85
2018-06-19T10:59:30.748Z,25.00
2018-06-19T11:01:59.159Z,24.49
2018-06-19T11:04:27.600Z,24.50
2018-06-19T11:06:56.391Z,24.76
2018-06-19T11:09:24.941Z,24.64
2018-06-19T11:11:53.383Z,24.42
2018-06-19T11:14:21.939Z,24.71
2018-06-19T11:16:50.395Z,24.77
2018-06-19T11:19:18.791Z,25.08
2018-06-19T11:21:47.231Z,25.00
2018-06-19T11:24:15.644Z,25.24
2018-06-19T11:26:44.151Z,25.32
2018-06-19T11:29:12.531Z,25.16
2018-06-19T11:31:41.028Z,25.61
2018-06-19T11:34:09.532Z,24.62
2018-06-19T11:36:38.056Z,24.55
2018-06-19T11:39:10.669Z,24.84
2018-06-19T11:41:39.383Z,24.90
2018-06-19T11:44:07.960Z,24.62
2018-06-19T11:46:36.487Z,25.23
2018-06-19T11:49:04.975Z,25.37
2018-06-19T11:51:33.408Z,25.44
2018-06-19T11:54:02.323Z,25.62
2018-06-19T11:56:30.771Z,25.67
2018-06-19T11:58:59.373Z,25.42
2018-06-19T12:01:27.780Z,25.40
2018-06-19T12:03:56.370Z,25.88
2018-06-19T12:06:24.851Z,26.10
2018-06-19T12:08:53.387Z,26.04
2018-06-19T12:11:21.811Z,26.26
2018-06-19T12:13:50.249Z,26.12
2018-06-19T12:16:18.655Z,26.67
2018-06-19T12:18:47.047Z,26.98
2018-06-19T12:21:15.543Z,27.22
2018-06-19T12:23:44.012Z,27.18
2018-06-19T12:26:12.468Z,27.35
2018-06-19T12:28:41.144Z,27.39
2018-06-19T12:31:09.560Z,26.32
2018-06-19T12:33:37.963Z,26.75
2018-06-19T12:36:07.523Z,26.87
2018-06-19T12:38:36.013Z,26.22
2018-06-19T12:41:04.496Z,26.16
2018-06-19T12:43:33.011Z,26.43
2018-06-19T12:46:01.647Z,26.09
2018-06-19T12:48:30.091Z,26.35
2018-06-19T12:52:07.708Z,27.00
2018-06-19T12:55:01.138Z,26.88
2018-06-19T12:57:29.571Z,27.27
2018-06-19T12:59:58.061Z,27.16
2018-06-19T13:02:26.549Z,26.90
2018-06-19T13:05:06.199Z,26.49
2018-06-19T13:07:34.726Z,26.85
2018-06-19T13:10:03.203Z,27.48
2018-06-19T13:12:42.747Z,27.20
2018-06-19T13:15:11.160Z,27.11
2018-06-19T13:17:50.844Z,26.79
2018-06-19T13:20:30.415Z,27.27
2018-06-19T13:22:58.867Z,27.11
2018-06-19T13:25:27.707Z,27.18
2018-06-19T13:27:56.156Z,26.91
2018-06-19T13:30:35.782Z,26.78
2018-06-19T13:33:04.172Z,26.63
2018-06-19T13:35:32.583Z,27.35
2018-06-19T13:38:00.972Z,27.36
2018-06-19T13:41:09.473Z,27.15
2018-06-19T13:43:49.216Z,26.64
2018-06-19T13:46:17.689Z,26.62
2018-06-19T13:48:46.142Z,26.50
2018-06-19T13:51:14.620Z,26.93
2018-06-19T13:53:43.885Z,27.09
2018-06-19T13:57:32.863Z,27.41
2018-06-19T14:00:02.704Z,27.67
2018-06-19T14:02:31.183Z,27.33
2018-06-19T14:05:00.010Z,27.05
2018-06-19T14:07:29.460Z,27.27
2018-06-19T14:10:09.187Z,27.48
2018-06-19T14:13:03.410Z,27.03
2018-06-19T14:15:37.287Z,26.71
2018-06-19T14:18:06.269Z,26.75
2018-06-19T14:20:34.964Z,26.84
2018-06-19T14:23:03.464Z,27.10
2018-06-19T14:25:31.953Z,26.80
2018-06-19T14:28:00.371Z,26.94
2018-06-19T14:30:28.809Z,27.00
2018-06-19T14:32:57.296Z,26.79
2018-06-19T14:35:25.831Z,26.84
2018-06-19T14:37:54.258Z,26.91
2018-06-19T14:40:22.787Z,26.74
2018-06-19T14:42:51.331Z,26.70
2018-06-19T14:45:19.833Z,26.92
2018-06-19T14:47:48.283Z,27.01
2018-06-19T14:50:16.772Z,27.06
2018-06-19T14:52:45.204Z,27.37
2018-06-19T14:55:13.647Z,27.14
2018-06-19T14:57:42.113Z,27.06
2018-06-19T15:00:11.207Z,26.47
2018-06-19T15:02:40.127Z,26.78
2018-06-19T15:05:09.037Z,26.53
2018-06-19T15:07:38.524Z,27.00
2018-06-19T15:10:08.250Z,26.55
2018-06-19T15:12:36.708Z,26.39
2018-06-19T15:15:05.139Z,26.24
2018-06-19T15:17:33.627Z,26.07
2018-06-19T15:20:02.083Z,26.03
2018-06-19T15:22:30.507Z,26.65
2018-06-19T15:24:59.003Z,26.61
2018-06-19T15:27:27.483Z,26.70
2018-06-19T15:29:55.975Z,26.45
2018-06-19T15:32:24.439Z,26.81
2018-06-19T15:34:52.882Z,26.62
2018-06-19T15:37:21.483Z,26.62
2018-06-19T15:39:49.946Z,26.62
2018-06-19T15:42:18.327Z,26.53
2018-06-19T15:44:46.736Z,26.42
2018-06-19T15:47:15.195Z,26.25
2018-06-19T15:49:43.744Z,26.27
2018-06-19T15:52:12.221Z,26.53
2018-06-19T15:54:40.631Z,26.58
2018-06-19T15:57:09.138Z,26.37
2018-06-19T15:59:37.510Z,26.47
2018-06-19T16:02:05.976Z,26.43
2018-06-19T16:04:34.391Z,26.69
2018-06-19T16:07:02.883Z,26.71
2018-06-19T16:09:31.343Z,26.35
2018-06-19T16:11:59.877Z,26.68
2018-06-19T16:14:28.323Z,26.29
2018-06-19T16:16:56.760Z,26.25
2018-06-19T16:19:25.227Z,26.15
2018-06-19T16:21:53.739Z,25.99
2018-06-19T16:24:22.140Z,26.17
2018-06-19T16:26:50.555Z,26.19
2018-06-19T16:29:19.154Z,26.72
2018-06-19T16:31:47.596Z,26.44
2018-06-19T16:34:16.099Z,26.12
2018-06-19T16:36:44.622Z,26.18
2018-06-19T16:39:13.499Z,26.03
2018-06-19T16:41:41.959Z,25.90
2018-06-19T16:44:10.508Z,26.45
2018-06-19T16:46:39.049Z,26.51
2018-06-19T16:49:07.839Z,26.64
2018-06-19T16:51:36.247Z,26.33
2018-06-19T16:54:04.763Z,26.23
2018-06-19T16:56:33.185Z,26.05
2018-06-19T16:59:01.612Z,26.24
2018-06-19T17:01:30.071Z,25.97
2018-06-19T17:03:58.466Z,26.06
2018-06-19T17:06:27.191Z,26.34
2018-06-19T17:08:55.787Z,26.47
2018-06-19T17:11:24.248Z,26.03
2018-06-19T17:13:52.723Z,26.03
2018-06-19T17:16:21.830Z,26.13
2018-06-19T17:18:50.243Z,25.81
2018-06-19T17:21:18.671Z,25.99
2018-06-19T17:23:47.360Z,26.26
2018-06-19T17:26:15.896Z,25.93
2018-06-19T17:28:44.383Z,26.36
2018-06-19T17:31:12.880Z,26.33
2018-06-19T17:33:41.297Z,25.97
2018-06-19T17:36:10.150Z,26.01
2018-06-19T17:38:38.713Z,26.23
2018-06-19T17:41:07.367Z,25.97
2018-06-19T17:43:35.868Z,26.18
2018-06-19T17:46:04.331Z,26.43
2018-06-19T17:48:32.814Z,26.29
2018-06-19T17:51:01.370Z,26.05
2018-06-19T17:53:29.908Z,26.31
2018-06-19T17:55:58.463Z,25.88
2018-06-19T17:58:26.921Z,25.64
2018-06-19T18:00:55.791Z,25.71
2018-06-19T18:03:24.236Z,25.50
2018-06-19T18:05:52.720Z,25.30
2018-06-19T18:08:21.199Z,25.20
2018-06-19T18:10:49.748Z,25.15
2018-06-19T18:13:18.241Z,24.88
2018-06-19T18:15:46.738Z,25.06
2018-06-19T18:18:16.298Z,24.92
2018-06-19T18:20:44.856Z,25.14
2018-06-19T18:23:14.243Z,25.30
2018-06-19T18:25:43.013Z,25.32
2018-06-19T18:28:11.960Z,25.32
2018-06-19T18:30:40.559Z,25.35
2018-06-19T18:33:09.160Z,25.31
2018-06-19T18:35:38.648Z,25.12
2018-06-19T18:38:07.819Z,25.28
2018-06-19T18:40:36.350Z,25.16
2018-06-19T18:43:05.345Z,25.30
2018-06-19T18:45:34.946Z,25.39
2018-06-19T18:48:03.992Z,25.32
2018-06-19T18:50:32.763Z,25.29
2018-06-19T18:53:01.300Z,24.95
2018-06-19T18:55:30.326Z,24.95
2018-06-19T18:57:58.889Z,25.10
2018-06-19T19:00:27.399Z,24.81
2018-06-19T19:02:55.937Z,24.66
2018-06-19T19:05:24.510Z,24.43
2018-06-19T19:07:54.052Z,24.28
2018-06-19T19:10:27.644Z,24.10
2018-06-19T19:12:56.916Z,23.98
2018-06-19T19:15:30.993Z,23.80
2018-06-19T19:18:04.862Z,23.72
2018-06-19T19:20:34.365Z,23.61
2018-06-19T19:23:02.903Z,23.71
2018-06-19T19:25:31.471Z,23.49
2018-06-19T19:28:05.324Z,23.20
2018-06-19T19:30:33.774Z,23.25
2018-06-19T19:33:02.788Z,23.19
2018-06-19T19:35:32.015Z,23.10
2018-06-19T19:39:09.092Z,23.02
2018-06-19T19:41:37.631Z,22.87
2018-06-19T19:44:07.089Z,23.01
2018-06-19T19:46:40.876Z,22.57
2018-06-19T19:49:09.617Z,22.68
2018-06-19T19:51:38.076Z,22.33
2018-06-19T19:54:06.854Z,22.24
2018-06-19T19:56:40.634Z,22.20
2018-06-19T19:59:09.060Z,22.14
2018-06-19T20:01:37.543Z,21.92
2018-06-19T20:04:06.070Z,21.93
2018-06-19T20:06:34.916Z,21.82
2018-06-19T20:09:03.765Z,21.79
2018-06-19T20:11:32.225Z,21.76
2018-06-19T20:14:00.772Z,21.72
2018-06-19T20:16:29.307Z,21.61
2018-06-19T20:18:57.970Z,21.61
2018-06-19T20:21:26.473Z,21.41
2018-06-19T20:23:55.127Z,21.22
2018-06-19T20:26:23.587Z,20.98
2018-06-19T20:28:52.065Z,21.02
2018-06-19T20:31:20.611Z,21.28
2018-06-19T20:33:49.117Z,21.07
2018-06-19T20:36:17.679Z,20.85
2018-06-19T20:38:46.202Z,20.73
2018-06-19T20:41:14.617Z,20.75
2018-06-19T20:43:43.310Z,20.65
2018-06-19T20:46:11.819Z,20.66
2018-06-19T20:48:40.255Z,20.67
2018-06-19T20:51:08.959Z,20.65
2018-06-19T20:53:37.455Z,20.46
2018-06-19T20:56:05.950Z,20.68
2018-06-19T20:58:34.395Z,20.67
2018-06-19T21:01:02.892Z,20.49
2018-06-19T21:03:31.427Z,20.54
2018-06-19T21:05:59.876Z,20.47
2018-06-19T21:08:33.771Z,20.56
2018-06-19T21:11:02.201Z,20.60
2018-06-19T21:13:30.616Z,20.66
2018-06-19T21:15:59.066Z,20.66
2018-06-19T21:18:27.455Z,20.86
2018-06-19T21:20:56.075Z,20.88
2018-06-19T21:23:24.514Z,20.87
2018-06-19T21:25:52.939Z,20.91
2018-06-19T21:28:21.336Z,20.42
2018-06-19T21:30:50.087Z,20.48
2018-06-19T21:33:18.711Z,20.38
2018-06-19T21:35:47.132Z,20.40
2018-06-19T21:38:15.691Z,20.46
2018-06-19T21:40:44.131Z,20.48
2018-06-19T21:43:12.580Z,20.59
2018-06-19T21:45:41.179Z,20.56
2018-06-19T21:48:09.579Z,20.62
2018-06-19T21:50:37.991Z,20.55
2018-06-19T21:53:06.651Z,20.57
2018-06-19T21:55:35.108Z,20.53
2018-06-19T21:58:03.600Z,20.48
2018-06-19T22:00:32.072Z,20.36
2018-06-19T22:03:00.549Z,20.53
2018-06-19T22:05:29.068Z,20.31
2018-06-19T22:07:57.527Z,20.21
2018-06-19T22:10:26.059Z,20.52
2018-06-19T22:12:54.480Z,20.44
2018-06-19T22:15:23.131Z,19.97
2018-06-19T22:17:51.631Z,20.22
2018-06-19T22:20:20.136Z,20.26
2018-06-19T22:22:48.655Z,20.18
2018-06-19T22:25:17.106Z,20.44
2018-06-19T22:27:45.776Z,20.42
2018-06-19T22:30:14.238Z,20.29
2018-06-19T22:32:42.694Z,20.40
2018-06-19T22:35:11.220Z,20.10
2018-06-19T22:37:39.707Z,20.06
2018-06-19T22:40:08.346Z,20.19
2018-06-19T22:42:36.762Z,20.13
2018-06-19T22:45:05.599Z,20.22
2018-06-19T22:47:34.239Z,20.14
2018-06-19T22:50:02.608Z,20.05
2018-06-19T22:52:31.228Z,19.96
2018-06-19T22:54:59.759Z,19.68
2018-06-19T22:57:28.150Z,20.15
2018-06-19T22:59:56.600Z,20.29
2018-06-19T23:02:25.028Z,20.03
2018-06-19T23:04:53.999Z,20.22
2018-06-19T23:07:22.372Z,20.21
2018-06-19T23:09:50.795Z,20.21
2018-06-19T23:12:19.210Z,20.21
2018-06-19T23:14:47.695Z,20.21
2018-06-19T23:17:16.267Z,20.10
2018-06-19T23:19:44.679Z,20.19
2018-06-19T23:22:13.166Z,20.22
2018-06-19T23:24:41.707Z,20.18
2018-06-19T23:27:10.156Z,20.19
2018-06-19T23:29:38.762Z,19.94
2018-06-19T23:32:07.248Z,19.90
2018-06-19T23:34:35.715Z,19.77
2018-06-19T23:37:04.179Z,19.74
2018-06-19T23:39:32.635Z,19.73
2018-06-19T23:42:01.345Z,19.81
2018-06-19T23:44:29.943Z,19.88
2018-06-19T23:46:58.327Z,19.77
2018-06-19T23:49:26.855Z,19.75
2018-06-19T23:51:55.307Z,19.72
2018-06-19T23:54:24.090Z,19.51
2018-06-19T23:56:52.514Z,19.42
2018-06-19T23:59:20.991Z,19.37
